sensor_id;sensor_type;location;lat;lon;timestamp;temperature;humidity
5520;DHT22;2782;52.362;10.012;2023-02-15T00:00:08;19.00;58.50
5520;DHT22;2782;52.362;10.012;2023-02-15T00:01:11;19.00;58.40
5520;DHT22;2782;52.362;10.012;2023-02-15T00:02:13;19.00;58.40
5520;DHT22;2782;52.362;10.012;2023-02-15T00:03:15;19.00;58.40
5520;DHT22;2782;52.362;10.012;2023-02-15T00:04:18;19.00;58.50
5520;DHT22;2782;52.362;10.012;2023-02-15T00:05:20;19.00;58.50
5520;DHT22;2782;52.362;10.012;2023-02-15T00:06:22;19.00;58.60
5520;DHT22;2782;52.362;10.012;2023-02-15T00:07:22;19.00;58.50
5520;DHT22;2782;52.362;10.012;2023-02-15T00:08:24;18.90;58.40
5520;DHT22;2782;52.362;10.012;2023-02-15T00:09:25;18.90;58.40
5520;DHT22;2782;52.362;10.012;2023-02-15T00:10:26;18.90;58.40
5520;DHT22;2782;52.362;10.012;2023-02-15T00:11:27;18.90;58.40
5520;DHT22;2782;52.362;10.012;2023-02-15T00:12:41;18.90;58.40
5520;DHT22;2782;52.362;10.012;2023-02-15T00:13:42;18.90;58.50
5520;DHT22;2782;52.362;10.012;2023-02-15T00:14:45;18.90;58.50
5520;DHT22;2782;52.362;10.012;2023-02-15T00:15:45;18.90;58.50
5520;DHT22;2782;52.362;10.012;2023-02-15T00:16:48;18.90;58.60
5520;DHT22;2782;52.362;10.012;2023-02-15T00:17:49;18.90;58.50
5520;DHT22;2782;52.362;10.012;2023-02-15T00:18:51;18.90;58.50
5520;DHT22;2782;52.362;10.012;2023-02-15T00:19:52;18.90;58.50
5520;DHT22;2782;52.362;10.012;2023-02-15T00:20:54;18.90;58.40
5520;DHT22;2782;52.362;10.012;2023-02-15T00:21:54;18.90;58.40
5520;DHT22;2782;52.362;10.012;2023-02-15T00:22:56;18.90;58.60
5520;DHT22;2782;52.362;10.012;2023-02-15T00:23:58;18.90;58.60
5520;DHT22;2782;52.362;10.012;2023-02-15T00:25:00;18.90;58.50
5520;DHT22;2782;52.362;10.012;2023-02-15T00:26:06;18.90;58.50
5520;DHT22;2782;52.362;10.012;2023-02-15T00:27:07;18.90;58.50
5520;DHT22;2782;52.362;10.012;2023-02-15T00:28:09;18.90;58.50
5520;DHT22;2782;52.362;10.012;2023-02-15T00:29:11;18.90;58.60
5520;DHT22;2782;52.362;10.012;2023-02-15T00:30:14;18.80;58.60
5520;DHT22;2782;52.362;10.012;2023-02-15T00:31:15;18.80;58.50
5520;DHT22;2782;52.362;10.012;2023-02-15T00:32:16;18.80;58.40
5520;DHT22;2782;52.362;10.012;2023-02-15T00:33:17;18.80;58.40
5520;DHT22;2782;52.362;10.012;2023-02-15T00:34:20;18.80;58.60
5520;DHT22;2782;52.362;10.012;2023-02-15T00:35:21;18.80;58.50
5520;DHT22;2782;52.362;10.012;2023-02-15T00:36:23;18.80;58.50
5520;DHT22;2782;52.362;10.012;2023-02-15T00:37:23;18.80;58.60
5520;DHT22;2782;52.362;10.012;2023-02-15T00:38:26;18.80;58.70
5520;DHT22;2782;52.362;10.012;2023-02-15T00:39:27;18.80;58.60
5520;DHT22;2782;52.362;10.012;2023-02-15T00:40:29;18.80;58.70
5520;DHT22;2782;52.362;10.012;2023-02-15T00:41:29;18.80;58.70
5520;DHT22;2782;52.362;10.012;2023-02-15T00:42:31;18.80;58.50
5520;DHT22;2782;52.362;10.012;2023-02-15T00:43:32;18.80;58.50
5520;DHT22;2782;52.362;10.012;2023-02-15T00:44:34;18.80;58.60
5520;DHT22;2782;52.362;10.012;2023-02-15T00:45:36;18.70;58.60
5520;DHT22;2782;52.362;10.012;2023-02-15T00:46:38;18.80;58.90
5520;DHT22;2782;52.362;10.012;2023-02-15T00:47:39;18.80;58.80
5520;DHT22;2782;52.362;10.012;2023-02-15T00:48:40;18.70;58.60
5520;DHT22;2782;52.362;10.012;2023-02-15T00:49:41;18.70;58.60
5520;DHT22;2782;52.362;10.012;2023-02-15T00:50:45;18.70;58.60
5520;DHT22;2782;52.362;10.012;2023-02-15T00:51:45;18.80;58.60
5520;DHT22;2782;52.362;10.012;2023-02-15T00:52:47;18.80;58.70
5520;DHT22;2782;52.362;10.012;2023-02-15T00:53:48;18.70;58.70
5520;DHT22;2782;52.362;10.012;2023-02-15T00:54:49;18.80;58.80
5520;DHT22;2782;52.362;10.012;2023-02-15T00:55:50;18.70;58.70
5520;DHT22;2782;52.362;10.012;2023-02-15T00:56:51;18.70;58.70
5520;DHT22;2782;52.362;10.012;2023-02-15T00:57:52;18.70;58.70
5520;DHT22;2782;52.362;10.012;2023-02-15T00:58:54;18.70;58.70
5520;DHT22;2782;52.362;10.012;2023-02-15T00:59:54;18.70;58.70
5520;DHT22;2782;52.362;10.012;2023-02-15T01:01:03;18.70;58.60
5520;DHT22;2782;52.362;10.012;2023-02-15T01:02:04;18.70;58.60
5520;DHT22;2782;52.362;10.012;2023-02-15T01:03:05;18.70;58.50
5520;DHT22;2782;52.362;10.012;2023-02-15T01:04:06;18.70;58.60
5520;DHT22;2782;52.362;10.012;2023-02-15T01:05:07;18.60;58.60
5520;DHT22;2782;52.362;10.012;2023-02-15T01:06:09;18.70;58.70
5520;DHT22;2782;52.362;10.012;2023-02-15T01:07:10;18.70;58.70
5520;DHT22;2782;52.362;10.012;2023-02-15T01:08:11;18.60;58.60
5520;DHT22;2782;52.362;10.012;2023-02-15T01:09:13;18.60;58.60
5520;DHT22;2782;52.362;10.012;2023-02-15T01:10:14;18.60;58.50
5520;DHT22;2782;52.362;10.012;2023-02-15T01:11:17;18.60;58.60
5520;DHT22;2782;52.362;10.012;2023-02-15T01:12:22;18.60;58.60
5520;DHT22;2782;52.362;10.012;2023-02-15T01:13:23;18.60;58.60
5520;DHT22;2782;52.362;10.012;2023-02-15T01:14:24;18.60;58.70
5520;DHT22;2782;52.362;10.012;2023-02-15T01:15:25;18.60;58.70
5520;DHT22;2782;52.362;10.012;2023-02-15T01:16:28;18.60;58.60
5520;DHT22;2782;52.362;10.012;2023-02-15T01:17:31;18.60;58.70
5520;DHT22;2782;52.362;10.012;2023-02-15T01:18:33;18.60;58.70
5520;DHT22;2782;52.362;10.012;2023-02-15T01:19:35;18.60;58.60
5520;DHT22;2782;52.362;10.012;2023-02-15T01:20:38;18.50;58.60
5520;DHT22;2782;52.362;10.012;2023-02-15T01:21:41;18.60;58.70
5520;DHT22;2782;52.362;10.012;2023-02-15T01:22:42;18.60;58.60
5520;DHT22;2782;52.362;10.012;2023-02-15T01:23:44;18.60;58.60
5520;DHT22;2782;52.362;10.012;2023-02-15T01:24:45;18.50;58.70
5520;DHT22;2782;52.362;10.012;2023-02-15T01:25:46;18.50;58.70
5520;DHT22;2782;52.362;10.012;2023-02-15T01:26:47;18.50;58.70
5520;DHT22;2782;52.362;10.012;2023-02-15T01:27:49;18.50;58.60
5520;DHT22;2782;52.362;10.012;2023-02-15T01:28:50;18.50;58.70
5520;DHT22;2782;52.362;10.012;2023-02-15T01:29:53;18.50;58.70
5520;DHT22;2782;52.362;10.012;2023-02-15T01:30:53;18.50;58.70
5520;DHT22;2782;52.362;10.012;2023-02-15T01:31:56;18.50;58.70
5520;DHT22;2782;52.362;10.012;2023-02-15T01:32:57;18.50;58.70
5520;DHT22;2782;52.362;10.012;2023-02-15T01:33:58;18.50;58.70
5520;DHT22;2782;52.362;10.012;2023-02-15T01:34:59;18.50;59.20
5520;DHT22;2782;52.362;10.012;2023-02-15T01:36:01;18.50;58.70
5520;DHT22;2782;52.362;10.012;2023-02-15T01:37:02;18.40;58.60
5520;DHT22;2782;52.362;10.012;2023-02-15T01:38:04;18.50;58.70
5520;DHT22;2782;52.362;10.012;2023-02-15T01:39:04;18.50;58.70
5520;DHT22;2782;52.362;10.012;2023-02-15T01:40:12;18.40;58.70
5520;DHT22;2782;52.362;10.012;2023-02-15T01:41:13;18.40;58.60
5520;DHT22;2782;52.362;10.012;2023-02-15T01:42:23;18.40;58.60
5520;DHT22;2782;52.362;10.012;2023-02-15T01:43:39;18.40;58.70
5520;DHT22;2782;52.362;10.012;2023-02-15T01:44:54;18.40;58.60
5520;DHT22;2782;52.362;10.012;2023-02-15T01:45:56;18.40;58.80
5520;DHT22;2782;52.362;10.012;2023-02-15T01:46:59;18.40;58.70
5520;DHT22;2782;52.362;10.012;2023-02-15T01:48:03;18.40;58.70
5520;DHT22;2782;52.362;10.012;2023-02-15T01:49:11;18.40;58.80
5520;DHT22;2782;52.362;10.012;2023-02-15T01:50:17;18.40;58.70
5520;DHT22;2782;52.362;10.012;2023-02-15T01:51:23;18.40;58.70
5520;DHT22;2782;52.362;10.012;2023-02-15T01:52:24;18.40;58.70
5520;DHT22;2782;52.362;10.012;2023-02-15T01:53:31;18.40;58.80
5520;DHT22;2782;52.362;10.012;2023-02-15T01:54:33;18.40;58.80
5520;DHT22;2782;52.362;10.012;2023-02-15T01:55:39;18.30;58.70
5520;DHT22;2782;52.362;10.012;2023-02-15T01:56:41;18.30;58.70
5520;DHT22;2782;52.362;10.012;2023-02-15T01:57:43;18.40;58.90
5520;DHT22;2782;52.362;10.012;2023-02-15T01:58:46;18.30;58.70
5520;DHT22;2782;52.362;10.012;2023-02-15T01:59:53;18.30;58.70
5520;DHT22;2782;52.362;10.012;2023-02-15T02:00:57;18.30;58.70
5520;DHT22;2782;52.362;10.012;2023-02-15T02:02:02;18.30;58.70
5520;DHT22;2782;52.362;10.012;2023-02-15T02:03:04;18.30;58.70
5520;DHT22;2782;52.362;10.012;2023-02-15T02:04:11;18.30;58.70
5520;DHT22;2782;52.362;10.012;2023-02-15T02:05:14;18.30;58.70
5520;DHT22;2782;52.362;10.012;2023-02-15T02:06:15;18.30;58.70
5520;DHT22;2782;52.362;10.012;2023-02-15T02:07:19;18.30;58.70
5520;DHT22;2782;52.362;10.012;2023-02-15T02:08:22;18.30;58.80
5520;DHT22;2782;52.362;10.012;2023-02-15T02:09:22;18.30;58.80
5520;DHT22;2782;52.362;10.012;2023-02-15T02:10:25;18.30;58.70
5520;DHT22;2782;52.362;10.012;2023-02-15T02:11:26;18.30;58.80
5520;DHT22;2782;52.362;10.012;2023-02-15T02:12:27;18.30;58.80
5520;DHT22;2782;52.362;10.012;2023-02-15T02:13:28;18.20;58.70
5520;DHT22;2782;52.362;10.012;2023-02-15T02:14:30;18.30;58.80
5520;DHT22;2782;52.362;10.012;2023-02-15T02:15:39;18.20;58.70
5520;DHT22;2782;52.362;10.012;2023-02-15T02:16:47;18.30;58.70
5520;DHT22;2782;52.362;10.012;2023-02-15T02:18:02;18.20;58.80
5520;DHT22;2782;52.362;10.012;2023-02-15T02:19:37;18.20;58.80
5520;DHT22;2782;52.362;10.012;2023-02-15T02:22:37;18.20;58.90
5520;DHT22;2782;52.362;10.012;2023-02-15T02:24:02;18.20;58.90
5520;DHT22;2782;52.362;10.012;2023-02-15T02:26:51;18.20;58.90
5520;DHT22;2782;52.362;10.012;2023-02-15T02:28:03;18.10;58.80
5520;DHT22;2782;52.362;10.012;2023-02-15T02:32:58;18.10;59.00
5520;DHT22;2782;52.362;10.012;2023-02-15T02:34:07;18.10;59.00
5520;DHT22;2782;52.362;10.012;2023-02-15T02:35:16;18.10;59.00
5520;DHT22;2782;52.362;10.012;2023-02-15T02:36:24;18.00;58.90
5520;DHT22;2782;52.362;10.012;2023-02-15T02:37:37;18.00;59.00
5520;DHT22;2782;52.362;10.012;2023-02-15T02:38:58;18.10;59.00
5520;DHT22;2782;52.362;10.012;2023-02-15T02:40:09;18.10;58.90
5520;DHT22;2782;52.362;10.012;2023-02-15T02:41:17;18.00;58.90
5520;DHT22;2782;52.362;10.012;2023-02-15T02:42:25;18.00;58.90
5520;DHT22;2782;52.362;10.012;2023-02-15T02:43:32;18.00;58.90
5520;DHT22;2782;52.362;10.012;2023-02-15T02:44:41;18.00;58.90
5520;DHT22;2782;52.362;10.012;2023-02-15T02:45:47;18.00;58.80
5520;DHT22;2782;52.362;10.012;2023-02-15T02:46:54;18.00;58.90
5520;DHT22;2782;52.362;10.012;2023-02-15T02:47:59;18.00;58.80
5520;DHT22;2782;52.362;10.012;2023-02-15T02:49:02;18.00;58.90
5520;DHT22;2782;52.362;10.012;2023-02-15T02:50:06;18.00;58.80
5520;DHT22;2782;52.362;10.012;2023-02-15T02:51:07;18.00;58.80
5520;DHT22;2782;52.362;10.012;2023-02-15T02:52:37;18.00;58.80
5520;DHT22;2782;52.362;10.012;2023-02-15T02:53:39;18.00;58.70
5520;DHT22;2782;52.362;10.012;2023-02-15T02:54:41;18.00;58.70
5520;DHT22;2782;52.362;10.012;2023-02-15T02:55:45;18.00;58.70
5520;DHT22;2782;52.362;10.012;2023-02-15T02:56:49;18.00;58.70
5520;DHT22;2782;52.362;10.012;2023-02-15T02:57:54;18.00;58.70
5520;DHT22;2782;52.362;10.012;2023-02-15T02:59:00;18.00;58.80
5520;DHT22;2782;52.362;10.012;2023-02-15T03:00:04;18.00;58.70
5520;DHT22;2782;52.362;10.012;2023-02-15T03:01:12;18.00;58.80
5520;DHT22;2782;52.362;10.012;2023-02-15T03:02:16;18.00;58.80
5520;DHT22;2782;52.362;10.012;2023-02-15T03:03:25;18.00;58.70
5520;DHT22;2782;52.362;10.012;2023-02-15T03:04:30;18.00;58.70
5520;DHT22;2782;52.362;10.012;2023-02-15T03:05:34;18.00;58.70
5520;DHT22;2782;52.362;10.012;2023-02-15T03:06:40;17.90;58.60
5520;DHT22;2782;52.362;10.012;2023-02-15T03:07:46;17.90;58.60
5520;DHT22;2782;52.362;10.012;2023-02-15T03:08:51;18.00;58.70
5520;DHT22;2782;52.362;10.012;2023-02-15T03:09:55;18.00;58.70
5520;DHT22;2782;52.362;10.012;2023-02-15T03:11:00;18.00;58.70
5520;DHT22;2782;52.362;10.012;2023-02-15T03:12:02;18.00;58.70
5520;DHT22;2782;52.362;10.012;2023-02-15T03:13:03;18.00;58.70
5520;DHT22;2782;52.362;10.012;2023-02-15T03:14:05;17.90;58.60
5520;DHT22;2782;52.362;10.012;2023-02-15T03:15:09;18.00;58.60
5520;DHT22;2782;52.362;10.012;2023-02-15T03:16:13;17.90;58.60
5520;DHT22;2782;52.362;10.012;2023-02-15T03:17:31;17.90;58.60
5520;DHT22;2782;52.362;10.012;2023-02-15T03:18:37;18.00;58.70
5520;DHT22;2782;52.362;10.012;2023-02-15T03:19:39;17.90;58.60
5520;DHT22;2782;52.362;10.012;2023-02-15T03:20:41;17.90;58.60
5520;DHT22;2782;52.362;10.012;2023-02-15T03:21:45;17.90;58.70
5520;DHT22;2782;52.362;10.012;2023-02-15T03:22:52;17.90;58.70
5520;DHT22;2782;52.362;10.012;2023-02-15T03:23:56;17.90;58.70
5520;DHT22;2782;52.362;10.012;2023-02-15T03:25:02;17.90;58.60
5520;DHT22;2782;52.362;10.012;2023-02-15T03:26:07;17.90;58.60
5520;DHT22;2782;52.362;10.012;2023-02-15T03:27:12;17.90;58.70
5520;DHT22;2782;52.362;10.012;2023-02-15T03:28:20;17.90;58.70
5520;DHT22;2782;52.362;10.012;2023-02-15T03:29:25;17.90;58.60
5520;DHT22;2782;52.362;10.012;2023-02-15T03:30:29;17.90;58.60
5520;DHT22;2782;52.362;10.012;2023-02-15T03:31:35;17.90;58.70
5520;DHT22;2782;52.362;10.012;2023-02-15T03:32:37;17.90;58.70
5520;DHT22;2782;52.362;10.012;2023-02-15T03:33:44;17.90;58.60
5520;DHT22;2782;52.362;10.012;2023-02-15T03:34:48;17.80;58.60
5520;DHT22;2782;52.362;10.012;2023-02-15T03:35:53;17.90;58.70
5520;DHT22;2782;52.362;10.012;2023-02-15T03:37:00;17.90;58.70
5520;DHT22;2782;52.362;10.012;2023-02-15T03:38:07;17.80;58.60
5520;DHT22;2782;52.362;10.012;2023-02-15T03:39:15;17.80;58.50
5520;DHT22;2782;52.362;10.012;2023-02-15T03:40:19;17.80;58.50
5520;DHT22;2782;52.362;10.012;2023-02-15T03:41:43;17.80;58.50
5520;DHT22;2782;52.362;10.012;2023-02-15T03:42:49;17.80;58.50
5520;DHT22;2782;52.362;10.012;2023-02-15T03:43:54;17.80;58.50
5520;DHT22;2782;52.362;10.012;2023-02-15T03:44:58;17.80;58.60
5520;DHT22;2782;52.362;10.012;2023-02-15T03:46:05;17.80;58.50
5520;DHT22;2782;52.362;10.012;2023-02-15T03:47:12;17.80;58.60
5520;DHT22;2782;52.362;10.012;2023-02-15T03:48:14;17.80;58.60
5520;DHT22;2782;52.362;10.012;2023-02-15T03:49:21;17.80;58.50
5520;DHT22;2782;52.362;10.012;2023-02-15T03:50:26;17.80;58.60
5520;DHT22;2782;52.362;10.012;2023-02-15T03:51:49;17.80;58.50
5520;DHT22;2782;52.362;10.012;2023-02-15T03:52:52;17.80;58.50
5520;DHT22;2782;52.362;10.012;2023-02-15T03:53:54;17.70;58.50
5520;DHT22;2782;52.362;10.012;2023-02-15T03:54:57;17.70;58.50
5520;DHT22;2782;52.362;10.012;2023-02-15T03:55:58;17.70;58.50
5520;DHT22;2782;52.362;10.012;2023-02-15T03:57:00;17.70;58.50
5520;DHT22;2782;52.362;10.012;2023-02-15T03:58:16;17.70;58.50
5520;DHT22;2782;52.362;10.012;2023-02-15T03:59:34;17.70;58.50
5520;DHT22;2782;52.362;10.012;2023-02-15T04:00:57;17.70;58.50
5520;DHT22;2782;52.362;10.012;2023-02-15T04:02:20;17.70;58.50
5520;DHT22;2782;52.362;10.012;2023-02-15T04:03:28;17.70;58.50
5520;DHT22;2782;52.362;10.012;2023-02-15T04:04:35;17.70;58.50
5520;DHT22;2782;52.362;10.012;2023-02-15T04:05:37;17.70;58.50
5520;DHT22;2782;52.362;10.012;2023-02-15T04:06:37;17.70;58.50
5520;DHT22;2782;52.362;10.012;2023-02-15T04:07:39;17.70;58.60
5520;DHT22;2782;52.362;10.012;2023-02-15T04:08:40;17.70;58.50
5520;DHT22;2782;52.362;10.012;2023-02-15T04:09:59;17.70;58.50
5520;DHT22;2782;52.362;10.012;2023-02-15T04:11:19;17.70;58.60
5520;DHT22;2782;52.362;10.012;2023-02-15T04:12:19;17.70;58.50
5520;DHT22;2782;52.362;10.012;2023-02-15T04:13:22;17.70;58.50
5520;DHT22;2782;52.362;10.012;2023-02-15T04:14:23;17.70;58.60
5520;DHT22;2782;52.362;10.012;2023-02-15T04:15:51;17.60;58.40
5520;DHT22;2782;52.362;10.012;2023-02-15T04:17:09;17.60;58.40
5520;DHT22;2782;52.362;10.012;2023-02-15T04:18:10;17.60;58.50
5520;DHT22;2782;52.362;10.012;2023-02-15T04:19:11;17.70;58.50
5520;DHT22;2782;52.362;10.012;2023-02-15T04:20:31;17.60;58.50
5520;DHT22;2782;52.362;10.012;2023-02-15T04:21:51;17.60;58.40
5520;DHT22;2782;52.362;10.012;2023-02-15T04:23:10;17.60;59.10
5520;DHT22;2782;52.362;10.012;2023-02-15T04:24:29;17.60;58.50
5520;DHT22;2782;52.362;10.012;2023-02-15T04:25:48;17.60;58.50
5520;DHT22;2782;52.362;10.012;2023-02-15T04:26:50;17.60;58.50
5520;DHT22;2782;52.362;10.012;2023-02-15T04:27:54;17.60;58.50
5520;DHT22;2782;52.362;10.012;2023-02-15T04:28:55;17.60;58.50
5520;DHT22;2782;52.362;10.012;2023-02-15T04:29:56;17.60;58.50
5520;DHT22;2782;52.362;10.012;2023-02-15T04:30:57;17.50;58.40
5520;DHT22;2782;52.362;10.012;2023-02-15T04:31:59;17.60;58.40
5520;DHT22;2782;52.362;10.012;2023-02-15T04:33:01;17.60;58.40
5520;DHT22;2782;52.362;10.012;2023-02-15T04:34:02;17.60;58.40
5520;DHT22;2782;52.362;10.012;2023-02-15T04:35:05;17.50;58.30
5520;DHT22;2782;52.362;10.012;2023-02-15T04:36:07;17.60;58.40
5520;DHT22;2782;52.362;10.012;2023-02-15T04:37:09;17.50;58.40
5520;DHT22;2782;52.362;10.012;2023-02-15T04:38:11;17.60;58.40
5520;DHT22;2782;52.362;10.012;2023-02-15T04:39:13;17.60;58.40
5520;DHT22;2782;52.362;10.012;2023-02-15T04:40:15;17.60;58.40
5520;DHT22;2782;52.362;10.012;2023-02-15T04:41:16;17.60;58.30
5520;DHT22;2782;52.362;10.012;2023-02-15T04:42:17;17.60;58.40
5520;DHT22;2782;52.362;10.012;2023-02-15T04:43:18;17.60;58.40
5520;DHT22;2782;52.362;10.012;2023-02-15T04:44:20;17.60;58.40
5520;DHT22;2782;52.362;10.012;2023-02-15T04:45:20;17.50;58.30
5520;DHT22;2782;52.362;10.012;2023-02-15T04:46:22;17.50;58.30
5520;DHT22;2782;52.362;10.012;2023-02-15T04:47:23;17.50;58.30
5520;DHT22;2782;52.362;10.012;2023-02-15T04:48:25;17.50;58.20
5520;DHT22;2782;52.362;10.012;2023-02-15T04:49:25;17.50;58.20
5520;DHT22;2782;52.362;10.012;2023-02-15T04:50:27;17.50;58.20
5520;DHT22;2782;52.362;10.012;2023-02-15T04:51:29;17.50;58.00
5520;DHT22;2782;52.362;10.012;2023-02-15T04:52:31;17.50;57.90
5520;DHT22;2782;52.362;10.012;2023-02-15T04:53:31;17.50;57.80
5520;DHT22;2782;52.362;10.012;2023-02-15T04:54:33;17.50;57.80
5520;DHT22;2782;52.362;10.012;2023-02-15T04:55:34;17.50;57.80
5520;DHT22;2782;52.362;10.012;2023-02-15T04:56:35;17.50;57.80
5520;DHT22;2782;52.362;10.012;2023-02-15T04:57:38;17.50;57.80
5520;DHT22;2782;52.362;10.012;2023-02-15T04:58:39;17.50;57.80
5520;DHT22;2782;52.362;10.012;2023-02-15T04:59:41;17.50;57.70
5520;DHT22;2782;52.362;10.012;2023-02-15T05:00:42;17.50;57.70
5520;DHT22;2782;52.362;10.012;2023-02-15T05:01:43;17.50;57.80
5520;DHT22;2782;52.362;10.012;2023-02-15T05:02:45;17.60;57.80
5520;DHT22;2782;52.362;10.012;2023-02-15T05:03:45;17.60;57.80
5520;DHT22;2782;52.362;10.012;2023-02-15T05:04:47;17.60;57.80
5520;DHT22;2782;52.362;10.012;2023-02-15T05:05:47;17.60;57.80
5520;DHT22;2782;52.362;10.012;2023-02-15T05:06:50;17.60;57.80
5520;DHT22;2782;52.362;10.012;2023-02-15T05:07:51;17.60;57.80
5520;DHT22;2782;52.362;10.012;2023-02-15T05:08:53;17.60;57.80
5520;DHT22;2782;52.362;10.012;2023-02-15T05:09:53;17.60;57.70
5520;DHT22;2782;52.362;10.012;2023-02-15T05:10:55;17.60;57.70
5520;DHT22;2782;52.362;10.012;2023-02-15T05:11:56;17.60;57.70
5520;DHT22;2782;52.362;10.012;2023-02-15T05:12:57;17.70;57.70
5520;DHT22;2782;52.362;10.012;2023-02-15T05:13:58;17.70;57.70
5520;DHT22;2782;52.362;10.012;2023-02-15T05:14:59;17.70;57.70
5520;DHT22;2782;52.362;10.012;2023-02-15T05:16:00;17.70;57.80
5520;DHT22;2782;52.362;10.012;2023-02-15T05:17:02;17.70;57.70
5520;DHT22;2782;52.362;10.012;2023-02-15T05:18:03;17.70;57.80
5520;DHT22;2782;52.362;10.012;2023-02-15T05:19:06;17.70;57.70
5520;DHT22;2782;52.362;10.012;2023-02-15T05:20:07;17.70;57.70
5520;DHT22;2782;52.362;10.012;2023-02-15T05:21:09;17.70;57.70
5520;DHT22;2782;52.362;10.012;2023-02-15T05:22:11;17.70;57.70
5520;DHT22;2782;52.362;10.012;2023-02-15T05:23:13;17.70;57.70
5520;DHT22;2782;52.362;10.012;2023-02-15T05:24:14;17.80;57.80
5520;DHT22;2782;52.362;10.012;2023-02-15T05:25:33;17.80;57.80
5520;DHT22;2782;52.362;10.012;2023-02-15T05:26:52;17.80;57.80
5520;DHT22;2782;52.362;10.012;2023-02-15T05:28:11;17.80;57.80
5520;DHT22;2782;52.362;10.012;2023-02-15T05:29:21;17.80;57.80
5520;DHT22;2782;52.362;10.012;2023-02-15T05:30:22;17.80;57.80
5520;DHT22;2782;52.362;10.012;2023-02-15T05:31:24;17.80;57.80
5520;DHT22;2782;52.362;10.012;2023-02-15T05:32:24;17.80;57.80
5520;DHT22;2782;52.362;10.012;2023-02-15T05:33:26;17.80;57.80
5520;DHT22;2782;52.362;10.012;2023-02-15T05:34:27;17.80;57.80
5520;DHT22;2782;52.362;10.012;2023-02-15T05:35:28;17.90;57.90
5520;DHT22;2782;52.362;10.012;2023-02-15T05:36:29;17.90;57.80
5520;DHT22;2782;52.362;10.012;2023-02-15T05:37:32;17.90;57.80
5520;DHT22;2782;52.362;10.012;2023-02-15T05:38:33;17.90;57.80
5520;DHT22;2782;52.362;10.012;2023-02-15T05:39:35;17.90;57.80
5520;DHT22;2782;52.362;10.012;2023-02-15T05:40:35;17.90;57.80
5520;DHT22;2782;52.362;10.012;2023-02-15T05:41:37;17.90;57.80
5520;DHT22;2782;52.362;10.012;2023-02-15T05:42:38;17.90;58.30
5520;DHT22;2782;52.362;10.012;2023-02-15T05:43:40;17.90;57.70
5520;DHT22;2782;52.362;10.012;2023-02-15T05:44:42;17.90;57.80
5520;DHT22;2782;52.362;10.012;2023-02-15T05:45:44;17.90;57.70
5520;DHT22;2782;52.362;10.012;2023-02-15T05:46:46;17.90;57.70
5520;DHT22;2782;52.362;10.012;2023-02-15T05:47:47;17.90;57.70
5520;DHT22;2782;52.362;10.012;2023-02-15T05:48:48;17.90;57.70
5520;DHT22;2782;52.362;10.012;2023-02-15T05:49:49;17.90;58.30
5520;DHT22;2782;52.362;10.012;2023-02-15T05:50:58;18.00;57.90
5520;DHT22;2782;52.362;10.012;2023-02-15T05:51:59;17.90;57.90
5520;DHT22;2782;52.362;10.012;2023-02-15T05:53:02;18.00;58.10
5520;DHT22;2782;52.362;10.012;2023-02-15T05:54:02;18.00;58.20
5520;DHT22;2782;52.362;10.012;2023-02-15T05:55:05;18.00;58.30
5520;DHT22;2782;52.362;10.012;2023-02-15T05:56:07;18.00;58.40
5520;DHT22;2782;52.362;10.012;2023-02-15T05:57:09;18.00;58.80
5520;DHT22;2782;52.362;10.012;2023-02-15T05:58:10;18.00;59.10
5520;DHT22;2782;52.362;10.012;2023-02-15T05:59:11;18.00;59.30
5520;DHT22;2782;52.362;10.012;2023-02-15T06:00:15;18.00;59.40
5520;DHT22;2782;52.362;10.012;2023-02-15T06:01:18;18.00;59.60
5520;DHT22;2782;52.362;10.012;2023-02-15T06:02:21;18.00;59.70
5520;DHT22;2782;52.362;10.012;2023-02-15T06:03:24;18.00;59.90
5520;DHT22;2782;52.362;10.012;2023-02-15T06:04:26;18.00;60.10
5520;DHT22;2782;52.362;10.012;2023-02-15T06:05:27;18.00;60.20
5520;DHT22;2782;52.362;10.012;2023-02-15T06:06:28;18.00;60.60
5520;DHT22;2782;52.362;10.012;2023-02-15T06:07:30;18.00;60.60
5520;DHT22;2782;52.362;10.012;2023-02-15T06:08:32;18.10;60.70
5520;DHT22;2782;52.362;10.012;2023-02-15T06:09:34;18.00;60.80
5520;DHT22;2782;52.362;10.012;2023-02-15T06:10:35;18.00;60.80
5520;DHT22;2782;52.362;10.012;2023-02-15T06:11:36;18.00;60.90
5520;DHT22;2782;52.362;10.012;2023-02-15T06:12:37;18.00;61.10
5520;DHT22;2782;52.362;10.012;2023-02-15T06:13:39;18.10;61.10
5520;DHT22;2782;52.362;10.012;2023-02-15T06:14:39;18.00;61.10
5520;DHT22;2782;52.362;10.012;2023-02-15T06:15:41;18.10;61.40
5520;DHT22;2782;52.362;10.012;2023-02-15T06:16:41;18.10;61.50
5520;DHT22;2782;52.362;10.012;2023-02-15T06:17:43;18.10;61.80
5520;DHT22;2782;52.362;10.012;2023-02-15T06:18:44;18.10;61.70
5520;DHT22;2782;52.362;10.012;2023-02-15T06:19:45;18.10;61.80
5520;DHT22;2782;52.362;10.012;2023-02-15T06:20:46;18.10;61.80
5520;DHT22;2782;52.362;10.012;2023-02-15T06:21:48;18.10;61.70
5520;DHT22;2782;52.362;10.012;2023-02-15T06:22:49;18.10;61.80
5520;DHT22;2782;52.362;10.012;2023-02-15T06:23:52;18.10;61.90
5520;DHT22;2782;52.362;10.012;2023-02-15T06:24:52;18.10;62.30
5520;DHT22;2782;52.362;10.012;2023-02-15T06:25:54;18.10;61.90
5520;DHT22;2782;52.362;10.012;2023-02-15T06:26:55;18.10;61.90
5520;DHT22;2782;52.362;10.012;2023-02-15T06:27:56;18.10;61.80
5520;DHT22;2782;52.362;10.012;2023-02-15T06:28:57;18.10;61.70
5520;DHT22;2782;52.362;10.012;2023-02-15T06:29:58;18.10;62.50
5520;DHT22;2782;52.362;10.012;2023-02-15T06:30:59;18.10;61.70
5520;DHT22;2782;52.362;10.012;2023-02-15T06:32:00;18.10;61.50
5520;DHT22;2782;52.362;10.012;2023-02-15T06:33:02;18.10;61.50
5520;DHT22;2782;52.362;10.012;2023-02-15T06:34:03;18.00;61.00
5520;DHT22;2782;52.362;10.012;2023-02-15T06:35:05;18.00;61.00
5520;DHT22;2782;52.362;10.012;2023-02-15T06:36:06;18.00;59.80
5520;DHT22;2782;52.362;10.012;2023-02-15T06:37:09;18.00;60.60
5520;DHT22;2782;52.362;10.012;2023-02-15T06:38:09;18.00;61.00
5520;DHT22;2782;52.362;10.012;2023-02-15T06:39:12;18.00;60.70
5520;DHT22;2782;52.362;10.012;2023-02-15T06:40:13;17.90;58.80
5520;DHT22;2782;52.362;10.012;2023-02-15T06:41:15;18.00;59.40
5520;DHT22;2782;52.362;10.012;2023-02-15T06:42:16;17.90;60.40
5520;DHT22;2782;52.362;10.012;2023-02-15T06:43:18;17.90;59.90
5520;DHT22;2782;52.362;10.012;2023-02-15T06:44:19;17.90;60.50
5520;DHT22;2782;52.362;10.012;2023-02-15T06:45:20;17.90;60.00
5520;DHT22;2782;52.362;10.012;2023-02-15T06:46:21;17.90;60.50
5520;DHT22;2782;52.362;10.012;2023-02-15T06:47:22;17.90;60.50
5520;DHT22;2782;52.362;10.012;2023-02-15T06:48:23;17.90;60.60
5520;DHT22;2782;52.362;10.012;2023-02-15T06:49:24;17.90;60.50
5520;DHT22;2782;52.362;10.012;2023-02-15T06:50:25;17.90;60.60
5520;DHT22;2782;52.362;10.012;2023-02-15T06:51:27;17.90;60.70
5520;DHT22;2782;52.362;10.012;2023-02-15T06:52:28;17.90;60.70
5520;DHT22;2782;52.362;10.012;2023-02-15T06:53:29;17.90;60.70
5520;DHT22;2782;52.362;10.012;2023-02-15T06:54:32;18.00;60.80
5520;DHT22;2782;52.362;10.012;2023-02-15T06:55:33;18.00;60.90
5520;DHT22;2782;52.362;10.012;2023-02-15T06:56:35;18.00;60.80